Warning: Javascript must be enabled to use all the features on this page!


Page Loading - Please Wait...

Click to hideNews Bulletins

Peak Streamflow for the Nation

USGS 07055607 Crooked Creek at Kelly Crossing at Yellville, AR

Marion County, Arkansas
Hydrologic Unit Code 11010003
Latitude  36°13'49", Longitude  92°42'34" NAD83
Drainage area 398  square miles
Gage datum 558.98 feet above NAVD88
Output formats
Table
Graph
Tab-separated file
peakfq (watstore) format
Reselect output format
Water
Year
Date Gage
Height
(feet)
Stream-
flow
(cfs)
1985 1985-02-23 24.01 22,500
1986 1985-11-19 16.88 9,030
1987 1987-02-16 11.11 2,780
1988 1987-12-25 17.42 9,830
1989 1989-02-14 15.35 7,060
1990 1990-05-03 25.20 38,500
1991 1991-04-14 11.35 4,490
1992 1991-10-29 18.92 19,200
1993 1993-01-04 15.90 12,700
1994 1993-11-14 11.46 5,520
1995 1995-01-13 14.37 10,800
1996 1996-09-26 13.65 10,300
1997 1996-11-07 12.19 6,920
1998 1998-02-11 10.67 5,320
1999 1999-05-05 10.04 4,680
2000 2000-06-17 9.12 3,810
2001 2001-02-16 9.24 3,930
2002 2002-03-20 15.69 14,500
2003 2003-05-17 6.83 1,860
2004 2004-04-24 23.12 31,400
2005 2005-01-06 8.12 2,910
2006 2006-04-30 8.14 2,930
2007 2006-12-01 17.813 8,4708
2008 2008-03-18 31.46 37,200
2009 2009-09-22 20.12 13,500
2010 2009-10-09 22.66 19,000
2011 2011-04-26 31.51 38,2002
2012 2012-03-21 17.30 8,640
2013 2013-08-08 16.68 6,260
2014 2014-03-17 16.56 2,590
2015 2015-05-11 17.86 6,800
2016 2015-12-28 33.63  
2017 2017-04-30 31.87  
2018 2018-03-29 16.81 5,180
2019 2019-05-01 19.08 9,540
2020 2020-01-11 21.67 17,100
2021 2021-04-29 25.58 57,400
?
  Peak Gage-Height Qualification Codes.
?
  Peak Streamflow Qualification Codes.